createdAt,value
2019-05-28T00:01:07.392Z,6.53
2019-05-28T00:03:36.699Z,7.00
2019-05-28T00:06:05.961Z,6.10
2019-05-28T00:08:54.532Z,6.17
2019-05-28T00:11:23.782Z,6.47
2019-05-28T00:13:54.386Z,5.53
2019-05-28T00:16:23.654Z,6.67
2019-05-28T00:18:54.419Z,10.63
2019-05-28T00:21:23.733Z,8.73
2019-05-28T00:23:52.996Z,5.60
2019-05-28T00:26:22.226Z,7.63
2019-05-28T00:29:10.830Z,7.77
2019-05-28T00:31:40.103Z,5.03
2019-05-28T00:34:09.363Z,8.93
2019-05-28T00:36:57.933Z,6.93
2019-05-28T00:39:27.263Z,8.17
2019-05-28T00:41:56.558Z,8.07
2019-05-28T00:44:25.958Z,12.23
2019-05-28T00:46:55.392Z,8.47
2019-05-28T00:49:25.029Z,8.53
2019-05-28T00:51:54.354Z,7.67
2019-05-28T00:54:23.649Z,7.67
2019-05-28T00:56:53.895Z,8.00
2019-05-28T00:59:46.304Z,8.27
2019-05-28T01:02:15.538Z,7.93
2019-05-28T01:04:44.818Z,7.20
2019-05-28T01:07:14.180Z,6.83
2019-05-28T01:09:43.538Z,8.70
2019-05-28T01:12:12.870Z,10.20
2019-05-28T01:14:42.134Z,8.77
2019-05-28T01:17:11.410Z,7.90
2019-05-28T01:19:40.655Z,6.30
2019-05-28T01:22:10.005Z,5.17
2019-05-28T01:24:39.285Z,9.10
2019-05-28T01:27:08.507Z,12.50
2019-05-28T01:29:37.844Z,15.83
2019-05-28T01:32:07.120Z,7.70
2019-05-28T01:34:36.339Z,6.73
2019-05-28T01:37:05.617Z,9.23
2019-05-28T01:39:34.904Z,9.90
2019-05-28T01:42:04.173Z,6.73
2019-05-28T01:44:33.522Z,11.03
2019-05-28T01:47:02.825Z,9.27
2019-05-28T01:49:32.071Z,10.43
2019-05-28T01:52:01.339Z,7.37
2019-05-28T01:54:30.712Z,6.33
2019-05-28T01:57:00.038Z,6.73
2019-05-28T01:59:48.711Z,7.80
2019-05-28T02:02:18.024Z,11.20
2019-05-28T02:04:47.273Z,6.83
2019-05-28T02:07:16.511Z,6.30
2019-05-28T02:09:45.755Z,9.27
2019-05-28T02:12:14.998Z,5.53
2019-05-28T02:14:44.265Z,6.13
2019-05-28T02:17:13.628Z,7.10
2019-05-28T02:19:42.960Z,10.07
2019-05-28T02:22:12.344Z,7.90
2019-05-28T02:24:41.659Z,9.03
2019-05-28T02:27:10.925Z,8.40
2019-05-28T02:29:40.166Z,7.50
2019-05-28T02:32:09.498Z,12.67
2019-05-28T02:34:38.824Z,7.23
2019-05-28T02:37:08.109Z,5.47
2019-05-28T02:39:37.382Z,10.00
2019-05-28T02:42:06.767Z,6.90
2019-05-28T02:44:36.015Z,7.33
2019-05-28T02:47:05.308Z,7.13
2019-05-28T02:49:34.746Z,8.40
2019-05-28T02:52:25.119Z,7.37
2019-05-28T02:54:54.418Z,7.23
2019-05-28T02:57:25.663Z,5.87
2019-05-28T02:59:56.827Z,10.90
2019-05-28T03:02:48.382Z,9.03
2019-05-28T03:05:18.775Z,7.43
2019-05-28T03:07:49.799Z,7.47
2019-05-28T03:11:00.402Z,9.93
2019-05-28T03:13:07.309Z,10.13
2019-05-28T03:15:39.632Z,10.90
2019-05-28T03:18:11.091Z,8.00
2019-05-28T03:20:42.483Z,6.27
2019-05-28T03:23:13.056Z,7.10
2019-05-28T03:25:42.363Z,6.13
2019-05-28T03:28:11.824Z,6.40
2019-05-28T03:30:41.047Z,5.60
2019-05-28T03:33:10.356Z,9.73
2019-05-28T03:35:41.743Z,10.53
2019-05-28T03:38:12.174Z,8.73
2019-05-28T03:40:43.875Z,7.20
2019-05-28T03:43:14.276Z,10.20
2019-05-28T03:45:43.593Z,7.20
2019-05-28T03:48:32.184Z,6.40
2019-05-28T03:51:01.472Z,9.63
2019-05-28T03:53:30.859Z,8.93
2019-05-28T03:56:00.084Z,6.27
2019-05-28T03:58:29.351Z,6.87
2019-05-28T04:00:58.580Z,6.50
2019-05-28T04:03:27.895Z,5.47
2019-05-28T04:05:57.188Z,10.60
2019-05-28T04:08:26.515Z,7.90
2019-05-28T04:10:55.761Z,13.43
2019-05-28T04:13:25.021Z,6.93
2019-05-28T04:15:54.251Z,7.13
2019-05-28T04:18:23.512Z,6.70
2019-05-28T04:20:52.753Z,10.90
2019-05-28T04:23:21.987Z,13.07
2019-05-28T04:25:51.290Z,9.00
2019-05-28T04:28:39.851Z,9.93
2019-05-28T04:31:09.113Z,9.10
2019-05-28T04:33:38.346Z,15.03
2019-05-28T04:36:07.599Z,9.70
2019-05-28T04:38:36.867Z,9.73
2019-05-28T04:41:06.111Z,8.10
2019-05-28T04:43:35.363Z,9.07
2019-05-28T04:46:04.840Z,9.77
2019-05-28T04:48:34.090Z,10.07
2019-05-28T04:51:03.879Z,9.03
2019-05-28T04:53:33.189Z,7.97
2019-05-28T04:56:02.435Z,7.87
2019-05-28T04:58:31.687Z,10.13
2019-05-28T05:01:00.951Z,7.97
2019-05-28T05:03:30.255Z,8.03
2019-05-28T05:05:59.507Z,9.20
2019-05-28T05:08:28.767Z,9.50
2019-05-28T05:11:18.206Z,12.60
2019-05-28T05:14:04.549Z,10.10
2019-05-28T05:16:44.794Z,11.93
2019-05-28T05:19:16.934Z,11.03
2019-05-28T05:21:46.187Z,14.30
2019-05-28T05:24:15.590Z,10.60
2019-05-28T05:26:44.973Z,11.97
2019-05-28T05:29:14.368Z,15.60
2019-05-28T05:31:43.639Z,15.47
2019-05-28T05:34:12.902Z,12.23
2019-05-28T05:36:42.163Z,16.33
2019-05-28T05:39:11.534Z,12.17
2019-05-28T05:41:40.835Z,17.70
2019-05-28T05:44:10.088Z,11.53
2019-05-28T05:46:39.331Z,12.93
2019-05-28T05:49:08.604Z,14.10
2019-05-28T05:51:37.839Z,13.87
2019-05-28T05:54:07.117Z,12.80
2019-05-28T05:56:55.683Z,10.77
2019-05-28T05:59:24.952Z,9.07
2019-05-28T06:01:54.186Z,11.83
2019-05-28T06:04:23.506Z,7.40
2019-05-28T06:06:52.771Z,8.17
2019-05-28T06:09:22.003Z,8.63
2019-05-28T06:11:51.287Z,7.97
2019-05-28T06:14:20.590Z,9.20
2019-05-28T06:16:49.910Z,11.87
2019-05-28T06:19:26.074Z,12.70
2019-05-28T06:21:55.347Z,9.03
2019-05-28T06:24:24.676Z,9.30
2019-05-28T06:26:53.991Z,8.17
2019-05-28T06:29:23.235Z,6.57
2019-05-28T06:31:52.471Z,10.50
2019-05-28T06:34:21.806Z,9.50
2019-05-28T06:37:06.330Z,7.90
2019-05-28T06:39:37.932Z,5.90
2019-05-28T06:42:07.244Z,5.80
2019-05-28T06:44:36.554Z,5.67
2019-05-28T06:47:25.172Z,6.13
2019-05-28T06:49:54.455Z,6.23
2019-05-28T06:52:23.697Z,14.50
2019-05-28T06:54:52.970Z,9.33
2019-05-28T06:57:23.432Z,5.30
2019-05-28T07:00:12.568Z,8.07
2019-05-28T07:02:42.496Z,8.57
2019-05-28T07:05:12.700Z,9.37
2019-05-28T07:07:41.948Z,7.13
2019-05-28T07:10:11.269Z,5.23
2019-05-28T07:12:40.683Z,6.13
2019-05-28T07:15:30.783Z,8.30
2019-05-28T07:18:00.119Z,5.00
2019-05-28T07:20:29.389Z,6.83
2019-05-28T07:22:58.717Z,9.60
2019-05-28T07:25:28.051Z,10.10
2019-05-28T07:28:16.725Z,7.47
2019-05-28T07:30:46.165Z,5.90
2019-05-28T07:33:16.986Z,5.77
2019-05-28T07:35:46.599Z,10.20
2019-05-28T07:38:15.901Z,7.93
2019-05-28T07:40:45.167Z,6.73
2019-05-28T07:43:14.419Z,7.20
2019-05-28T07:45:43.653Z,8.47
2019-05-28T07:48:12.944Z,9.10
2019-05-28T07:50:54.602Z,5.83
2019-05-28T07:53:38.690Z,8.30
2019-05-28T07:55:55.014Z,6.83
2019-05-28T07:58:24.397Z,7.23
2019-05-28T08:00:53.739Z,6.80
2019-05-28T08:03:23.064Z,7.77
2019-05-28T08:05:52.389Z,4.93
2019-05-28T08:08:42.503Z,8.50
2019-05-28T08:11:31.133Z,7.40
2019-05-28T08:14:00.396Z,5.10
2019-05-28T08:16:29.623Z,4.47
2019-05-28T08:18:58.881Z,5.97
2019-05-28T08:21:29.950Z,6.83
2019-05-28T08:23:59.025Z,5.00
2019-05-28T08:26:28.456Z,5.47
2019-05-28T08:28:59.770Z,4.30
2019-05-28T08:31:28.649Z,6.03
2019-05-28T08:33:57.880Z,6.80
2019-05-28T08:36:27.152Z,5.20
2019-05-28T08:38:56.404Z,9.40
2019-05-28T08:41:25.649Z,4.60
2019-05-28T08:43:54.926Z,12.53
2019-05-28T08:46:24.156Z,7.10
2019-05-28T08:48:53.514Z,6.13
2019-05-28T08:51:33.172Z,5.77
2019-05-28T08:54:02.878Z,6.00
2019-05-28T08:56:32.223Z,7.47
2019-05-28T08:59:01.471Z,5.60
2019-05-28T09:01:30.938Z,4.00
2019-05-28T09:04:00.180Z,6.30
2019-05-28T09:06:48.779Z,3.97
2019-05-28T09:09:37.451Z,4.57
2019-05-28T09:12:09.556Z,3.60
2019-05-28T09:14:55.089Z,3.70
2019-05-28T09:17:08.960Z,2.87
2019-05-28T09:19:38.182Z,4.40
2019-05-28T09:22:07.500Z,5.10
2019-05-28T09:24:36.800Z,4.33
2019-05-28T09:27:06.124Z,5.27
2019-05-28T09:29:35.570Z,3.60
2019-05-28T09:32:05.046Z,4.73
2019-05-28T09:34:34.346Z,4.43
2019-05-28T09:37:03.784Z,3.63
2019-05-28T09:39:33.104Z,4.43
2019-05-28T09:42:02.327Z,5.00
2019-05-28T09:44:31.591Z,4.87
2019-05-28T09:47:00.851Z,5.93
2019-05-28T09:49:30.254Z,6.30
2019-05-28T09:51:59.486Z,7.50
2019-05-28T09:54:28.747Z,5.90
2019-05-28T09:56:58.023Z,6.47
2019-05-28T09:59:40.662Z,6.70
2019-05-28T10:01:58.586Z,9.10
2019-05-28T10:04:49.971Z,7.53
2019-05-28T10:07:18.295Z,7.07
2019-05-28T10:09:47.652Z,7.47
2019-05-28T10:12:19.148Z,7.63
2019-05-28T10:15:08.079Z,5.70
2019-05-28T10:17:37.412Z,6.53
2019-05-28T10:20:08.612Z,7.10
2019-05-28T10:22:37.943Z,7.40
2019-05-28T10:25:08.127Z,7.30
2019-05-28T10:27:37.454Z,8.87
2019-05-28T10:30:09.516Z,9.83
2019-05-28T10:32:38.869Z,10.80
2019-05-28T10:35:08.858Z,9.23
2019-05-28T10:37:38.387Z,12.90
2019-05-28T10:40:08.704Z,15.90
2019-05-28T10:42:38.106Z,13.90
2019-05-28T10:45:11.605Z,11.43
2019-05-28T10:48:00.203Z,11.90
2019-05-28T10:50:29.554Z,11.80
2019-05-28T10:52:58.875Z,14.80
2019-05-28T10:55:28.094Z,12.80
2019-05-28T10:57:57.470Z,12.87
2019-05-28T11:00:28.953Z,13.47
2019-05-28T11:02:58.231Z,12.10
2019-05-28T11:05:27.700Z,11.67
2019-05-28T11:07:57.177Z,13.10
2019-05-28T11:10:26.839Z,11.27
2019-05-28T11:12:56.132Z,12.80
2019-05-28T11:15:25.729Z,12.63
2019-05-28T11:17:55.062Z,11.27
2019-05-28T11:20:24.810Z,10.30
2019-05-28T11:22:54.574Z,11.83
2019-05-28T11:25:24.726Z,12.20
2019-05-28T11:28:13.388Z,11.30
2019-05-28T11:30:42.687Z,11.80
2019-05-28T11:33:12.087Z,11.40
2019-05-28T11:35:41.318Z,10.80
2019-05-28T11:38:10.643Z,9.97
2019-05-28T11:40:59.289Z,11.67
2019-05-28T11:43:28.675Z,11.07
2019-05-28T11:45:58.146Z,11.80
2019-05-28T11:48:27.725Z,12.83
2019-05-28T11:50:56.981Z,11.53
2019-05-28T11:53:26.293Z,11.17
2019-05-28T11:55:55.543Z,11.40
2019-05-28T11:58:24.898Z,10.90
2019-05-28T12:00:54.149Z,11.00
2019-05-28T12:03:23.556Z,11.80
2019-05-28T12:05:52.936Z,12.77
2019-05-28T12:08:22.269Z,15.17
2019-05-28T12:10:51.629Z,12.60
2019-05-28T12:13:20.976Z,12.07
2019-05-28T12:15:51.369Z,12.10
2019-05-28T12:18:39.988Z,13.43
2019-05-28T12:21:09.328Z,14.50
2019-05-28T12:23:38.641Z,15.37
2019-05-28T12:26:07.908Z,14.63
2019-05-28T12:28:38.506Z,16.87
2019-05-28T12:31:07.947Z,11.23
2019-05-28T12:33:37.298Z,14.17
2019-05-28T12:36:09.780Z,14.23
2019-05-28T12:38:39.311Z,14.00
2019-05-28T12:41:08.579Z,16.50
2019-05-28T12:43:39.572Z,15.43
2019-05-28T12:46:08.832Z,18.00
2019-05-28T12:48:38.123Z,17.13
2019-05-28T12:51:07.467Z,22.37
2019-05-28T12:53:49.306Z,17.00
2019-05-28T12:56:27.129Z,19.80
2019-05-28T12:58:56.416Z,18.77
2019-05-28T13:01:25.869Z,18.47
2019-05-28T13:03:55.217Z,16.77
2019-05-28T13:06:43.929Z,21.30
2019-05-28T13:09:13.171Z,15.87
2019-05-28T13:11:42.503Z,16.43
2019-05-28T13:14:11.792Z,16.30
2019-05-28T13:16:41.118Z,15.60
2019-05-28T13:19:10.500Z,15.30
2019-05-28T13:21:39.834Z,13.60
2019-05-28T13:24:09.183Z,14.10
2019-05-28T13:26:40.467Z,16.07
2019-05-28T13:29:09.477Z,15.60
2019-05-28T13:31:38.846Z,15.70
2019-05-28T13:34:08.095Z,15.77
2019-05-28T13:36:37.365Z,14.60
2019-05-28T13:39:08.001Z,14.57
2019-05-28T13:41:37.411Z,15.47
2019-05-28T13:44:08.075Z,14.87
2019-05-28T13:46:37.711Z,17.97
2019-05-28T13:49:07.057Z,16.00
2019-05-28T13:51:36.316Z,19.60
2019-05-28T13:54:05.801Z,16.40
2019-05-28T13:56:35.268Z,17.73
2019-05-28T13:59:04.697Z,16.23
2019-05-28T14:01:34.060Z,14.87
2019-05-28T14:04:03.437Z,17.07
2019-05-28T14:06:32.871Z,15.40
2019-05-28T14:09:02.117Z,13.77
2019-05-28T14:11:31.378Z,13.13
2019-05-28T14:14:00.721Z,14.20
2019-05-28T14:16:30.271Z,12.60
2019-05-28T14:18:59.531Z,14.27
2019-05-28T14:21:48.171Z,14.30
2019-05-28T14:24:17.514Z,15.00
2019-05-28T14:26:46.792Z,14.40
2019-05-28T14:29:16.220Z,13.70
2019-05-28T14:31:45.593Z,14.80
2019-05-28T14:34:14.895Z,15.10
2019-05-28T14:36:44.241Z,15.37
2019-05-28T14:39:16.611Z,16.43
2019-05-28T14:41:45.870Z,16.67
2019-05-28T14:44:15.174Z,17.43
2019-05-28T14:46:44.537Z,16.43
2019-05-28T14:49:13.892Z,21.10
2019-05-28T14:51:43.301Z,17.53
2019-05-28T14:54:31.916Z,21.10
2019-05-28T14:57:01.187Z,28.63
2019-05-28T14:59:30.501Z,28.20
2019-05-28T15:01:59.844Z,30.50
2019-05-28T15:04:29.203Z,27.37
2019-05-28T15:07:17.933Z,23.10
2019-05-28T15:09:47.208Z,24.03
2019-05-28T15:12:35.900Z,20.17
2019-05-28T15:15:35.970Z,20.40
2019-05-28T15:17:58.053Z,22.10
2019-05-28T15:20:29.945Z,22.30
2019-05-28T15:22:58.454Z,18.67
2019-05-28T15:25:27.866Z,21.27
2019-05-28T15:27:57.189Z,20.37
2019-05-28T15:30:26.580Z,20.03
2019-05-28T15:33:15.208Z,23.10
2019-05-28T15:35:45.462Z,15.77
2019-05-28T15:38:14.772Z,12.50
2019-05-28T15:40:44.074Z,12.90
2019-05-28T15:43:13.410Z,14.90
2019-05-28T15:45:42.714Z,14.73
2019-05-28T15:48:12.075Z,14.87
2019-05-28T15:50:41.397Z,17.27
2019-05-28T15:53:10.900Z,15.37
2019-05-28T15:55:59.513Z,16.50
2019-05-28T15:58:31.396Z,17.67
2019-05-28T16:01:00.734Z,19.97
2019-05-28T16:03:49.437Z,23.50
2019-05-28T16:06:18.823Z,22.90
2019-05-28T16:08:48.156Z,21.70
2019-05-28T16:11:17.431Z,26.23
2019-05-28T16:13:46.741Z,22.80
2019-05-28T16:16:16.148Z,26.53
2019-05-28T16:18:45.414Z,28.07
2019-05-28T16:21:14.714Z,20.37
2019-05-28T16:23:44.251Z,18.47
2019-05-28T16:26:13.734Z,18.97
2019-05-28T16:28:43.176Z,19.40
2019-05-28T16:31:13.641Z,18.90
2019-05-28T16:33:43.200Z,21.67
2019-05-28T16:36:12.628Z,21.93
2019-05-28T16:38:41.939Z,22.90
2019-05-28T16:41:11.343Z,22.80
2019-05-28T16:43:40.672Z,22.63
2019-05-28T16:46:09.955Z,21.37
2019-05-28T16:48:39.205Z,21.13
2019-05-28T16:51:08.536Z,22.00
2019-05-28T16:53:37.801Z,20.37
2019-05-28T16:56:07.097Z,21.37
2019-05-28T16:58:36.537Z,23.50
2019-05-28T17:01:25.143Z,21.30
2019-05-28T17:03:54.434Z,21.23
2019-05-28T17:06:23.770Z,20.83
2019-05-28T17:08:53.095Z,19.73
2019-05-28T17:11:25.095Z,18.10
2019-05-28T17:13:53.441Z,17.57
2019-05-28T17:16:22.758Z,18.33
2019-05-28T17:18:52.007Z,19.67
2019-05-28T17:21:23.253Z,17.73
2019-05-28T17:23:52.459Z,20.40
2019-05-28T17:26:21.764Z,20.00
2019-05-28T17:28:51.025Z,20.20
2019-05-28T17:31:20.479Z,19.30
2019-05-28T17:33:49.881Z,20.23
2019-05-28T17:36:19.247Z,20.37
2019-05-28T17:38:48.554Z,19.23
2019-05-28T17:41:19.917Z,20.03
2019-05-28T17:43:48.932Z,20.20
2019-05-28T17:46:18.214Z,22.40
2019-05-28T17:48:47.520Z,19.87
2019-05-28T17:51:17.044Z,21.03
2019-05-28T17:53:46.463Z,20.17
2019-05-28T17:56:15.707Z,18.87
2019-05-28T17:58:45.036Z,20.57
2019-05-28T18:01:14.361Z,18.47
2019-05-28T18:03:43.692Z,23.60
2019-05-28T18:06:13.019Z,20.73
2019-05-28T18:08:42.355Z,19.57
2019-05-28T18:11:11.679Z,22.33
2019-05-28T18:14:00.371Z,19.57
2019-05-28T18:16:49.090Z,18.40
2019-05-28T18:19:18.372Z,18.07
2019-05-28T18:21:47.693Z,17.90
2019-05-28T18:24:17.870Z,17.53
2019-05-28T18:26:47.279Z,18.97
2019-05-28T18:29:16.715Z,18.77
2019-05-28T18:32:05.442Z,19.77
2019-05-28T18:34:34.795Z,19.00
2019-05-28T18:37:04.228Z,17.80
2019-05-28T18:39:33.528Z,17.80
2019-05-28T18:42:02.918Z,17.10
2019-05-28T18:44:32.166Z,18.97
2019-05-28T18:47:01.514Z,17.63
2019-05-28T18:49:30.850Z,16.33
2019-05-28T18:52:00.738Z,17.50
2019-05-28T18:54:30.107Z,16.50
2019-05-28T18:56:59.453Z,20.10
2019-05-28T18:59:28.818Z,15.63
2019-05-28T19:01:59.473Z,16.40
2019-05-28T19:04:29.186Z,14.43
2019-05-28T19:06:58.654Z,12.77
2019-05-28T19:09:27.901Z,14.20
2019-05-28T19:12:00.176Z,13.23
2019-05-28T19:14:29.587Z,14.90
2019-05-28T19:16:58.946Z,15.30
2019-05-28T19:19:28.263Z,16.60
2019-05-28T19:21:57.616Z,14.50
2019-05-28T19:24:26.944Z,14.03
2019-05-28T19:26:56.249Z,13.73
2019-05-28T19:29:25.598Z,12.37
2019-05-28T19:31:55.472Z,13.20
2019-05-28T19:34:24.796Z,10.90
2019-05-28T19:36:56.659Z,12.07
2019-05-28T19:39:27.929Z,10.70
2019-05-28T19:41:57.267Z,13.50
2019-05-28T19:44:26.622Z,9.93
2019-05-28T19:46:56.367Z,12.13
2019-05-28T19:49:25.684Z,10.37
2019-05-28T19:51:55.069Z,9.40
2019-05-28T19:54:24.455Z,9.57
2019-05-28T19:57:13.187Z,10.07
2019-05-28T19:59:42.502Z,11.08
2019-05-28T20:02:12.043Z,10.53
2019-05-28T20:04:43.007Z,10.93
2019-05-28T20:07:12.504Z,12.10
2019-05-28T20:09:41.967Z,9.10
2019-05-28T20:12:13.046Z,9.00
2019-05-28T20:14:42.292Z,10.50
2019-05-28T20:17:11.535Z,10.27
2019-05-28T20:19:42.146Z,10.13
2019-05-28T20:22:11.455Z,9.70
2019-05-28T20:24:40.837Z,11.30
2019-05-28T20:27:10.271Z,11.40
2019-05-28T20:29:58.881Z,12.70
2019-05-28T20:32:28.165Z,13.63
2019-05-28T20:34:57.408Z,10.90
2019-05-28T20:37:26.813Z,11.87
2019-05-28T20:39:56.099Z,10.90
2019-05-28T20:42:27.367Z,10.40
2019-05-28T20:44:56.644Z,10.97
2019-05-28T20:47:25.951Z,10.80
2019-05-28T20:49:55.296Z,14.00
2019-05-28T20:52:24.608Z,11.97
2019-05-28T20:54:55.053Z,10.87
2019-05-28T20:57:24.872Z,11.53
2019-05-28T20:59:54.231Z,11.90
2019-05-28T21:02:23.605Z,13.43
2019-05-28T21:04:52.895Z,11.53
2019-05-28T21:07:22.204Z,12.00
2019-05-28T21:09:52.182Z,14.07
2019-05-28T21:12:21.684Z,13.07
2019-05-28T21:14:54.844Z,11.40
2019-05-28T21:17:24.224Z,12.40
2019-05-28T21:19:53.503Z,14.80
2019-05-28T21:22:42.174Z,12.13
2019-05-28T21:25:11.894Z,12.80
2019-05-28T21:27:41.248Z,16.10
2019-05-28T21:30:11.199Z,13.53
2019-05-28T21:32:40.522Z,15.07
2019-05-28T21:35:09.924Z,13.67
2019-05-28T21:37:39.182Z,14.23
2019-05-28T21:40:09.346Z,14.27
2019-05-28T21:42:38.660Z,13.27
2019-05-28T21:45:08.564Z,14.23
2019-05-28T21:47:37.841Z,15.30
2019-05-28T21:50:12.038Z,14.00
2019-05-28T21:52:41.344Z,13.73
2019-05-28T21:55:11.022Z,16.47
2019-05-28T21:57:40.332Z,18.67
2019-05-28T22:00:22.958Z,14.37
2019-05-28T22:02:52.309Z,14.80
2019-05-28T22:05:21.647Z,14.10
2019-05-28T22:07:50.967Z,13.80
2019-05-28T22:10:20.317Z,15.27
2019-05-28T22:12:49.582Z,13.40
2019-05-28T22:15:19.143Z,18.73
2019-05-28T22:17:48.397Z,14.00
2019-05-28T22:20:37.015Z,15.20
2019-05-28T22:23:08.838Z,14.57
2019-05-28T22:25:38.187Z,15.53
2019-05-28T22:28:07.446Z,14.80
2019-05-28T22:30:36.706Z,13.50
2019-05-28T22:33:06.083Z,13.70
2019-05-28T22:35:35.406Z,13.53
2019-05-28T22:38:05.449Z,13.90
2019-05-28T22:40:34.856Z,13.83
2019-05-28T22:43:05.111Z,13.07
2019-05-28T22:45:53.879Z,15.20
2019-05-28T22:48:29.352Z,12.97
2019-05-28T22:51:18.048Z,12.33
2019-05-28T22:53:47.303Z,13.50
2019-05-28T22:56:16.548Z,12.60
2019-05-28T22:58:45.799Z,15.30
2019-05-28T23:01:16.318Z,12.93
2019-05-28T23:03:45.631Z,11.33
2019-05-28T23:06:15.674Z,11.93
2019-05-28T23:08:45.046Z,9.70
2019-05-28T23:11:14.373Z,9.30
2019-05-28T23:13:49.646Z,12.53
2019-05-28T23:16:38.243Z,9.13
2019-05-28T23:19:08.652Z,7.27
2019-05-28T23:21:38.019Z,9.60
2019-05-28T23:24:14.697Z,11.83
2019-05-28T23:26:43.947Z,10.83
2019-05-28T23:29:13.204Z,8.03
2019-05-28T23:31:42.439Z,9.37
2019-05-28T23:34:12.613Z,11.03
2019-05-28T23:36:42.062Z,9.30
2019-05-28T23:39:11.432Z,9.23
2019-05-28T23:41:40.702Z,8.90
2019-05-28T23:44:10.066Z,8.63
2019-05-28T23:46:39.348Z,9.20
2019-05-28T23:49:08.780Z,9.00
2019-05-28T23:51:38.088Z,9.47
2019-05-28T23:54:07.731Z,11.63
2019-05-28T23:56:37.053Z,8.60
2019-05-28T23:59:06.314Z,10.73
